Coolidge, Arizona
Current Conditions -  °F | °C
As of 1:35 PM on Wednesday 28 Jan 2015 (Local Time) from KCGZ Reporting Station
Clear Clear  
Wind Chill: 68°   Ceiling: Unl
Heat Index: 68°   Visibility: 10mi
Dew Point: 54°   Wind: 6mph
Humidity: 60%   Direction: 270°W
Pressure: 30.1"   Gusts: NA
Location:  32.98°N, 111.52°W
Report Text: KCGZ 282035Z AUTO 27005KT 10SM CLR 20/12 A3010 RMK AO1
Loading
Personal Weather Stations






























Interactive Weather Map New forecast layout! Learn more

10-Day Weather Forecast

Advertisements
Track Severe Weather on mobile